Time;durP1;ratioP1;P1;durP2;ratioP2;P2;SDS_P1;SDS_P2;PMS_P1;PMS_P2;Temp;Humidity;BMP_temperature;BMP_pressure;BME280_temperature;BME280_humidity;BME280_pressure;Samples;Min_cycle;Max_cycle;Signal;HPM_P1;HPM_P2
2021/03/20 00:02:28;;;;;;;17.80;12.27;;;;;;;-1.47;93.60;99729.41;5001505;28;20218;-92
2021/03/20 00:05:21;;;;;;;17.87;12.40;;;;;;;-1.50;93.75;99718.34;5002897;28;20224;-91
2021/03/20 00:08:06;;;;;;;17.97;12.70;;;;;;;-1.39;93.83;99736.56;4975778;28;20549;-91
2021/03/20 00:10:53;;;;;;;18.67;12.70;;;;;;;-1.58;94.00;99715.59;5003802;28;20281;-89
2021/03/20 00:13:36;;;;;;;18.33;13.27;;;;;;;-1.62;93.86;99708.94;5004032;28;20223;-94
2021/03/20 00:16:26;;;;;;;17.33;12.33;;;;;;;-1.62;93.58;99717.66;5004993;28;20280;-93
2021/03/20 00:19:08;;;;;;;17.23;11.80;;;;;;;-1.61;93.35;99727.22;5002419;28;20231;-93
2021/03/20 00:21:46;;;;;;;17.67;11.93;;;;;;;-1.60;93.39;99726.25;4985654;28;20572;-93
2021/03/20 00:24:20;;;;;;;20.17;12.90;;;;;;;-1.63;93.34;99737.03;4984117;28;20231;-92
2021/03/20 00:27:01;;;;;;;18.97;12.57;;;;;;;-1.55;93.68;99731.91;5000318;28;20253;-94
2021/03/20 00:29:43;;;;;;;19.10;12.87;;;;;;;-1.55;93.50;99744.22;5001747;28;20227;-93
2021/03/20 00:32:24;;;;;;;18.63;12.70;;;;;;;-1.56;93.67;99732.03;5003664;28;20310;-91
2021/03/20 00:35:04;;;;;;;19.00;12.60;;;;;;;-1.59;93.57;99719.19;5002873;28;20233;-92
2021/03/20 00:37:47;;;;;;;19.73;13.43;;;;;;;-1.55;93.63;99731.91;5000880;28;20223;-94
2021/03/20 00:40:40;;;;;;;16.80;12.13;;;;;;;-1.70;93.64;99704.41;5000420;28;20225;-93
2021/03/20 00:43:32;;;;;;;18.73;12.53;;;;;;;-1.65;93.63;99711.88;5014332;28;20234;-89
2021/03/20 00:46:16;;;;;;;17.53;12.37;;;;;;;-1.50;93.67;99740.22;5000245;28;20250;-95
2021/03/20 00:48:58;;;;;;;18.27;12.70;;;;;;;-1.51;93.58;99735.91;4982673;28;20235;-92
2021/03/20 00:51:40;;;;;;;17.27;12.07;;;;;;;-1.53;93.48;99737.84;4966770;28;20228;-92
2021/03/20 00:54:34;;;;;;;19.43;12.17;;;;;;;-1.48;93.49;99735.63;4982174;28;20238;-94
2021/03/20 00:57:19;;;;;;;19.10;11.80;;;;;;;-1.36;93.11;99749.47;4961184;28;20223;-93
2021/03/20 01:00:04;;;;;;;17.50;12.40;;;;;;;-1.43;93.14;99740.47;5002256;28;20238;-93
2021/03/20 01:02:45;;;;;;;17.80;11.90;;;;;;;-1.38;93.07;99738.25;5002005;28;20238;-94
2021/03/20 01:05:29;;;;;;;15.30;10.80;;;;;;;-1.52;93.13;99701.88;4999756;28;20224;-91
2021/03/20 01:08:04;;;;;;;18.23;11.40;;;;;;;-1.22;92.86;99745.56;5001136;28;20259;-86
2021/03/20 01:10:50;;;;;;;16.23;11.43;;;;;;;-1.39;92.26;99708.50;4999003;28;20564;-89
2021/03/20 01:13:31;;;;;;;15.77;11.53;;;;;;;-1.14;91.84;99749.13;4984154;28;20278;-93
2021/03/20 01:16:24;;;;;;;14.50;11.07;;;;;;;-1.11;91.34;99729.59;5000032;28;20234;-90
2021/03/20 01:19:12;;;;;;;15.07;10.83;;;;;;;-1.22;91.19;99708.75;4998524;28;20227;-89
2021/03/20 01:21:57;;;;;;;14.97;10.57;;;;;;;-1.02;90.79;99734.81;5000689;28;20233;-92
2021/03/20 01:24:48;;;;;;;15.40;11.43;;;;;;;-1.05;90.54;99721.97;5005603;28;20250;-92
2021/03/20 01:27:35;;;;;;;15.67;11.07;;;;;;;-0.89;90.65;99745.06;5008135;28;20230;-85
2021/03/20 01:30:33;;;;;;;14.83;11.33;;;;;;;-0.88;90.73;99744.06;5019118;28;20795;-86
2021/03/20 01:33:51;;;;;;;15.63;11.33;;;;;;;-0.85;90.15;99745.59;5030326;28;20239;-81
2021/03/20 01:36:39;;;;;;;16.30;11.27;;;;;;;-0.81;89.98;99749.59;5017931;28;20250;-81
2021/03/20 01:39:23;;;;;;;15.47;11.30;;;;;;;-1.00;89.68;99711.03;5001111;28;20308;-84
2021/03/20 01:42:13;;;;;;;17.53;12.30;;;;;;;-0.78;89.25;99747.47;5016803;28;20195;-84
2021/03/20 01:45:12;;;;;;;15.63;11.33;;;;;;;-0.77;89.21;99745.69;4983160;28;20656;-81
2021/03/20 01:48:27;;;;;;;15.83;11.83;;;;;;;-0.72;88.94;99753.97;5005768;28;20218;-80
2021/03/20 01:51:20;;;;;;;15.50;11.43;;;;;;;-0.80;88.99;99733.66;5035074;28;20237;-86
2021/03/20 01:54:03;;;;;;;16.60;11.23;;;;;;;-0.70;88.49;99750.22;5006181;28;20239;-91
2021/03/20 01:56:48;;;;;;;16.30;10.93;;;;;;;-0.83;87.92;99733.09;4974772;28;20320;-95
2021/03/20 01:59:40;;;;;;;15.77;11.23;;;;;;;-0.80;88.26;99738.09;5006580;28;20348;-87
2021/03/20 02:02:38;;;;;;;14.57;11.07;;;;;;;-0.81;88.48;99747.78;5000433;28;20227;-83
2021/03/20 02:05:34;;;;;;;15.00;11.03;;;;;;;-0.76;87.98;99744.72;4970206;28;20214;-91
2021/03/20 02:08:24;;;;;;;16.27;11.13;;;;;;;-0.74;87.93;99748.00;4998251;28;20227;-87
2021/03/20 02:11:33;;;;;;;14.90;11.43;;;;;;;-0.79;88.26;99750.28;4986938;28;20216;-86
2021/03/20 02:14:50;;;;;;;15.40;10.97;;;;;;;-0.95;88.50;99737.72;5025371;28;20219;-91
2021/03/20 02:17:47;;;;;;;16.30;11.43;;;;;;;-0.87;88.37;99753.59;5010302;28;20649;-95
2021/03/20 02:20:33;;;;;;;15.43;12.33;;;;;;;-0.88;87.97;99752.78;5019940;28;20231;-84
2021/03/20 02:23:47;;;;;;;15.30;11.90;;;;;;;-0.88;88.42;99749.31;5019376;28;20194;-85
2021/03/20 02:26:48;;;;;;;17.67;11.97;;;;;;;-0.96;88.29;99746.59;5020971;28;20210;-81
2021/03/20 02:29:56;;;;;;;15.10;11.30;;;;;;;-0.95;88.47;99749.06;5011926;28;20225;-92
2021/03/20 02:32:54;;;;;;;16.30;11.57;;;;;;;-1.21;88.43;99713.03;4987140;28;20239;-94
2021/03/20 02:35:52;;;;;;;16.03;11.83;;;;;;;-0.98;88.58;99757.22;4989677;28;20316;-94
2021/03/20 02:38:59;;;;;;;17.37;12.60;;;;;;;-1.14;88.44;99738.63;4985924;28;20242;-94
2021/03/20 02:42:05;;;;;;;16.90;12.40;;;;;;;-1.19;89.00;99746.09;4976403;28;20184;-91
2021/03/20 02:45:01;;;;;;;16.77;12.30;;;;;;;-1.23;88.63;99759.66;4967858;28;20235;-89
2021/03/20 02:48:05;;;;;;;17.07;12.77;;;;;;;-1.14;89.53;99775.41;4957431;28;20232;-93
2021/03/20 02:51:07;;;;;;;15.73;11.83;;;;;;;-1.18;89.44;99775.84;4947549;29;20662;-94
2021/03/20 02:54:16;;;;;;;17.40;12.77;;;;;;;-1.20;89.63;99777.78;4959500;28;20750;-90
2021/03/20 02:57:40;;;;;;;18.23;13.27;;;;;;;-1.37;89.60;99756.50;4961113;28;20644;-93
2021/03/20 03:00:30;;;;;;;18.27;12.70;;;;;;;-1.23;89.56;99772.81;4946665;28;20224;-92
2021/03/20 03:03:19;;;;;;;18.07;13.60;;;;;;;-1.38;89.84;99754.00;4963326;28;20239;-92
2021/03/20 03:06:09;;;;;;;19.07;14.17;;;;;;;-1.33;89.83;99773.66;4979740;28;20247;-90
2021/03/20 03:08:59;;;;;;;17.47;13.17;;;;;;;-1.42;90.00;99765.78;4977080;28;20228;-93
2021/03/20 03:11:45;;;;;;;18.30;13.50;;;;;;;-1.35;90.34;99777.38;4944135;29;20267;-88
2021/03/20 03:14:36;;;;;;;18.83;14.10;;;;;;;-1.59;90.20;99741.06;4957721;29;20232;-93
2021/03/20 03:17:19;;;;;;;20.27;14.07;;;;;;;-1.52;90.52;99762.31;4941299;29;20595;-93
2021/03/20 03:20:19;;;;;;;18.70;14.63;;;;;;;-1.43;90.21;99769.38;4936719;28;20278;-91
2021/03/20 03:23:05;;;;;;;21.73;14.10;;;;;;;-1.51;90.48;99764.00;4947156;28;20525;-95
2021/03/20 03:26:07;;;;;;;18.63;13.97;;;;;;;-1.36;90.35;99786.25;4977197;28;20219;-94
2021/03/20 03:29:17;;;;;;;20.67;14.47;;;;;;;-1.52;90.33;99757.06;4977728;28;20593;-94
2021/03/20 03:32:18;;;;;;;20.07;14.43;;;;;;;-1.42;90.32;99771.88;4959108;28;20315;-87
2021/03/20 03:35:08;;;;;;;20.73;15.43;;;;;;;-1.37;90.16;99782.78;4983272;28;20555;-94
2021/03/20 03:38:04;;;;;;;19.23;14.40;;;;;;;-1.28;90.34;99793.44;4983675;28;20239;-93
2021/03/20 03:41:00;;;;;;;20.90;14.40;;;;;;;-1.26;90.55;99800.19;4998117;28;20227;-94
2021/03/20 03:43:44;;;;;;;20.33;14.83;;;;;;;-1.38;90.25;99778.50;4982639;28;20634;-89
2021/03/20 03:46:53;;;;;;;20.40;14.87;;;;;;;-1.19;90.57;99800.47;4996872;28;20231;-93
2021/03/20 03:49:36;;;;;;;21.13;15.30;;;;;;;-1.43;90.51;99758.84;4996923;28;20235;-88
2021/03/20 03:52:26;;;;;;;21.80;15.57;;;;;;;-1.24;91.02;99784.28;4996139;28;20227;-93
2021/03/20 03:55:13;;;;;;;24.23;16.20;;;;;;;-1.11;91.42;99814.56;4995736;28;20270;-89
2021/03/20 03:58:15;;;;;;;24.23;16.73;;;;;;;-1.10;92.26;99815.41;4995559;28;20298;-87
2021/03/20 04:01:10;;;;;;;24.63;16.03;;;;;;;-1.10;92.92;99810.97;4995029;28;20541;-87
2021/03/20 04:04:01;;;;;;;20.93;15.77;;;;;;;-1.18;93.38;99797.72;4995469;28;20234;-92
2021/03/20 04:07:17;;;;;;;26.97;17.83;;;;;;;-1.10;93.92;99816.25;4995230;28;20338;-94
2021/03/20 04:10:25;;;;;;;25.10;17.23;;;;;;;-1.11;94.05;99817.19;4996279;28;20224;-90
2021/03/20 04:13:45;;;;;;;25.80;17.23;;;;;;;-1.25;94.20;99795.78;4995221;28;20314;-94
2021/03/20 04:16:34;;;;;;;27.83;19.27;;;;;;;-1.18;94.54;99813.50;4980827;28;20215;-90
2021/03/20 04:19:19;;;;;;;26.17;18.70;;;;;;;-1.11;94.02;99829.50;4981551;28;20255;-93
2021/03/20 04:22:13;;;;;;;28.83;19.47;;;;;;;-1.34;94.10;99803.53;4995258;28;20251;-91
2021/03/20 04:25:11;;;;;;;30.13;19.70;;;;;;;-1.36;93.99;99820.44;4995464;28;20706;-91
2021/03/20 04:28:22;;;;;;;31.60;19.60;;;;;;;-1.51;93.94;99806.03;4963745;28;20239;-93
2021/03/20 04:31:17;;;;;;;29.17;19.00;;;;;;;-1.55;93.95;99812.53;4983627;28;20225;-92
2021/03/20 04:34:04;;;;;;;29.23;20.17;;;;;;;-1.48;94.59;99830.22;4997128;28;20234;-91
2021/03/20 04:37:10;;;;;;;27.67;19.33;;;;;;;-1.59;94.80;99819.03;4996967;28;20260;-95
2021/03/20 04:39:59;;;;;;;31.53;19.67;;;;;;;-1.63;95.27;99807.94;4996439;28;20250;-92
2021/03/20 04:42:52;;;;;;;38.33;21.37;;;;;;;-1.45;95.16;99837.88;4976884;28;20228;-92
2021/03/20 04:45:50;;;;;;;30.13;19.90;;;;;;;-1.40;95.53;99837.44;4978303;28;20220;-91
2021/03/20 04:48:41;;;;;;;36.67;21.90;;;;;;;-1.38;95.33;99849.47;4995316;28;20227;-95
2021/03/20 04:51:39;;;;;;;33.97;21.30;;;;;;;-1.41;95.60;99847.13;4995726;28;20230;-93
2021/03/20 04:54:23;;;;;;;30.13;20.60;;;;;;;-1.52;95.44;99818.34;4999153;28;20227;-90
2021/03/20 04:57:37;;;;;;;33.00;21.33;;;;;;;-1.28;95.24;99846.84;4999618;28;20647;-91
2021/03/20 05:00:28;;;;;;;33.60;21.03;;;;;;;-1.36;95.46;99854.59;4983844;28;20239;-87
2021/03/20 05:03:20;;;;;;;29.83;19.97;;;;;;;-1.42;94.66;99847.25;4980765;28;20287;-91
2021/03/20 05:06:09;;;;;;;34.00;21.53;;;;;;;-1.42;94.79;99861.22;4983128;28;20228;-90
2021/03/20 05:09:10;;;;;;;30.43;19.80;;;;;;;-1.49;94.21;99869.78;4998627;28;20239;-92
2021/03/20 05:12:06;;;;;;;31.00;20.53;;;;;;;-1.60;93.54;99849.75;5000011;28;20225;-92
2021/03/20 05:15:36;;;;;;;25.97;17.97;;;;;;;-1.54;92.32;99875.44;4998075;28;20520;-90
2021/03/20 05:18:19;;;;;;;28.73;18.80;;;;;;;-1.66;93.17;99860.78;4983443;28;20531;-92
2021/03/20 05:21:02;;;;;;;28.53;19.53;;;;;;;-1.59;93.53;99882.94;4997853;28;20240;-91
2021/03/20 05:23:47;;;;;;;30.13;19.37;;;;;;;-1.83;93.68;99858.81;4999431;28;20227;-93
2021/03/20 05:26:24;;;;;;;30.33;20.50;;;;;;;-1.63;93.81;99883.34;4998277;28;20254;-94
2021/03/20 05:29:04;;;;;;;31.27;20.43;;;;;;;-1.66;93.95;99887.06;4999981;28;20237;-94
2021/03/20 05:31:44;;;;;;;30.57;19.73;;;;;;;-1.55;93.59;99891.38;4999370;28;20224;-94
2021/03/20 05:34:41;;;;;;;30.13;20.07;;;;;;;-1.55;93.36;99896.63;4983466;28;20625;-93
2021/03/20 05:37:37;;;;;;;30.77;20.10;;;;;;;-1.62;92.95;99891.06;4978722;28;20227;-95
2021/03/20 05:40:31;;;;;;;25.67;18.10;;;;;;;-1.62;92.19;99908.63;4978548;28;20236;-93
2021/03/20 05:43:24;;;;;;;27.77;18.83;;;;;;;-1.60;92.05;99901.44;4978315;28;20259;-95
2021/03/20 05:46:32;;;;;;;25.80;18.40;;;;;;;-1.78;92.11;99875.00;4977537;28;20224;-94
2021/03/20 05:49:40;;;;;;;23.87;16.20;;;;;;;-1.63;90.71;99918.31;4978749;28;20235;-95
2021/03/20 05:52:44;;;;;;;23.37;16.10;;;;;;;-1.91;89.69;99882.28;4977861;28;20255;-90
2021/03/20 05:55:41;;;;;;;21.20;14.17;;;;;;;-1.81;88.57;99923.38;4978683;28;20234;-94
2021/03/20 05:58:35;;;;;;;22.73;14.63;;;;;;;-1.97;89.23;99896.81;4977030;28;20223;-94
2021/03/20 06:01:52;;;;;;;19.97;14.00;;;;;;;-1.75;86.53;99924.63;4996870;28;20231;-94
2021/03/20 06:04:38;;;;;;;20.67;13.77;;;;;;;-1.63;85.61;99928.00;4968990;28;20220;-89
2021/03/20 06:07:49;;;;;;;19.90;14.73;;;;;;;-1.78;85.76;99914.41;4969910;28;20227;-94
2021/03/20 06:10:56;;;;;;;19.80;14.67;;;;;;;-1.67;85.02;99922.16;4997318;28;20235;-92
2021/03/20 06:14:00;;;;;;;20.73;14.33;;;;;;;-1.54;84.36;99932.44;4996748;28;20242;-92
2021/03/20 06:17:04;;;;;;;18.70;13.43;;;;;;;-1.71;83.60;99917.31;4997345;28;20227;-94
2021/03/20 06:20:10;;;;;;;21.40;14.77;;;;;;;-1.48;83.81;99945.03;4978332;28;20647;-85
2021/03/20 06:23:18;;;;;;;18.83;13.50;;;;;;;-1.47;83.12;99951.94;4969790;28;20301;-95
2021/03/20 06:26:21;;;;;;;19.10;13.60;;;;;;;-1.53;83.02;99957.75;4997464;28;21026;-94
2021/03/20 06:29:27;;;;;;;20.13;13.50;;;;;;;-1.66;83.48;99933.50;4996603;28;20238;-94
2021/03/20 06:32:22;;;;;;;20.67;12.13;;;;;;;-1.48;82.45;99972.13;4967676;28;20314;-92
2021/03/20 06:35:08;;;;;;;17.40;12.23;;;;;;;-1.61;82.15;99954.97;4996431;28;20235;-89
2021/03/20 06:37:54;;;;;;;17.30;11.77;;;;;;;-1.68;82.92;99962.53;4996135;28;20227;-92
2021/03/20 06:40:46;;;;;;;12.67;8.27;;;;;;;-1.69;81.66;99981.91;4996059;28;20224;-93
2021/03/20 06:43:57;;;;;;;11.10;7.27;;;;;;;-1.55;79.64;99996.47;4984389;28;20717;-94
2021/03/20 06:46:47;;;;;;;9.37;5.33;;;;;;;-1.49;78.08;99988.03;5010012;28;20251;-93
2021/03/20 06:49:38;;;;;;;8.87;5.13;;;;;;;-1.33;76.47;100002.34;4997028;28;20569;-92
2021/03/20 06:52:28;;;;;;;9.37;4.80;;;;;;;-1.32;75.28;100021.59;4995817;28;20235;-95
2021/03/20 06:55:43;;;;;;;11.47;5.67;;;;;;;-1.03;75.17;100021.66;4989195;28;20710;-93
2021/03/20 06:58:40;;;;;;;8.13;4.90;;;;;;;-1.02;75.09;100026.75;4976719;28;20251;-92
2021/03/20 07:01:31;;;;;;;7.33;4.50;;;;;;;-1.58;74.91;99992.31;4962185;28;20232;-93
2021/03/20 07:04:38;;;;;;;8.73;4.30;;;;;;;-1.16;76.03;100019.25;4977956;28;20331;-94
2021/03/20 07:07:37;;;;;;;6.87;4.20;;;;;;;-1.07;73.84;100036.00;4958381;28;20235;-88
2021/03/20 07:10:42;;;;;;;7.07;4.00;;;;;;;-1.11;74.51;100038.09;4977623;28;20236;-92
2021/03/20 07:13:48;;;;;;;5.80;3.40;;;;;;;-1.24;73.91;100039.28;4982482;28;20230;-95
2021/03/20 07:17:01;;;;;;;6.60;3.07;;;;;;;-1.41;73.85;100036.34;4994657;28;20227;-92
2021/03/20 07:19:58;;;;;;;5.67;3.33;;;;;;;-1.09;74.02;100054.56;4995863;28;20277;-89
2021/03/20 07:22:54;;;;;;;7.60;4.27;;;;;;;-0.76;74.17;100073.59;4996633;28;20231;-95
2021/03/20 07:25:49;;;;;;;6.47;4.47;;;;;;;-0.78;75.32;100065.81;4976603;28;20224;-92
2021/03/20 07:28:32;;;;;;;5.60;4.17;;;;;;;-0.87;74.34;100077.16;4966234;28;20243;-95
2021/03/20 07:31:12;;;;;;;8.27;5.00;;;;;;;-0.61;73.46;100064.34;4996818;28;20293;-92
2021/03/20 07:33:52;;;;;;;6.10;4.70;;;;;;;-0.67;74.30;100075.41;4995985;28;20250;-87
2021/03/20 07:36:43;;;;;;;14.33;6.63;;;;;;;-0.45;73.33;100091.75;4996946;28;20246;-94
2021/03/20 07:39:31;;;;;;;9.57;6.00;;;;;;;-0.71;73.55;100059.06;4996537;28;20229;-94
2021/03/20 07:42:28;;;;;;;13.07;6.97;;;;;;;-0.77;73.41;100095.59;4996185;28;20234;-92
2021/03/20 07:45:20;;;;;;;11.03;6.03;;;;;;;-0.94;75.00;100103.19;4996692;28;20231;-91
2021/03/20 07:48:00;;;;;;;7.23;5.33;;;;;;;-0.58;74.60;100099.09;4996809;28;20530;-92
2021/03/20 07:50:48;;;;;;;8.67;5.47;;;;;;;-0.59;74.10;100086.06;4997040;28;20227;-89
2021/03/20 07:53:28;;;;;;;8.80;5.30;;;;;;;-0.67;71.84;100089.41;4997310;28;20238;-95
2021/03/20 07:56:18;;;;;;;18.90;7.97;;;;;;;-0.84;72.98;100084.78;4996679;28;20301;-95
2021/03/20 07:59:28;;;;;;;18.63;7.87;;;;;;;-0.59;72.71;100118.47;4996131;28;20306;-92
2021/03/20 08:02:28;;;;;;;8.30;4.90;;;;;;;-0.98;72.72;100108.88;4981227;28;20224;-89
2021/03/20 08:05:21;;;;;;;15.57;5.50;;;;;;;-1.05;73.00;100123.50;4962450;28;20228;-94
2021/03/20 08:08:27;;;;;;;27.67;11.20;;;;;;;-0.57;72.96;100127.09;4976871;28;20278;-93
2021/03/20 08:11:33;;;;;;;17.57;7.83;;;;;;;-0.42;71.72;100135.38;4974706;28;20544;-95
2021/03/20 08:14:20;;;;;;;25.37;10.17;;;;;;;-0.65;73.43;100133.97;4976749;28;20230;-94
2021/03/20 08:17:01;;;;;;;10.10;5.40;;;;;;;-0.65;72.88;100111.13;4976165;28;20281;-94
2021/03/20 08:19:50;;;;;;;25.77;14.50;;;;;;;-0.78;74.14;100107.91;4976105;28;20715;-85
2021/03/20 08:22:56;;;;;;;8.00;5.93;;;;;;;-0.65;73.11;100132.19;4976647;28;20232;-95
2021/03/20 08:25:55;;;;;;;8.47;6.07;;;;;;;-0.24;73.21;100144.28;4990477;28;20227;-95
2021/03/20 08:28:47;;;;;;;6.70;4.50;;;;;;;-0.32;72.82;100146.75;4998197;28;20540;-93
2021/03/20 08:31:49;;;;;;;7.90;4.50;;;;;;;-0.03;72.10;100147.59;4979848;28;20659;-93
2021/03/20 08:35:25;;;;;;;6.47;4.43;;;;;;;0.11;72.39;100141.06;4969935;28;20231;-82
2021/03/20 08:38:23;;;;;;;5.90;3.87;;;;;;;0.12;72.25;100153.28;5001431;28;20538;-95
2021/03/20 08:41:36;;;;;;;6.20;4.70;;;;;;;-0.32;72.59;100152.03;4999918;28;20578;-89
2021/03/20 08:44:49;;;;;;;5.73;3.90;;;;;;;-0.36;73.21;100137.47;4999997;28;20262;-91
2021/03/20 08:47:44;;;;;;;4.73;3.83;;;;;;;-0.06;71.67;100165.50;5000567;28;20227;-84
2021/03/20 08:50:43;;;;;;;4.97;3.97;;;;;;;0.03;72.56;100169.94;5000347;28;20254;-94
2021/03/20 08:54:18;;;;;;;8.80;6.80;;;;;;;-0.38;72.03;100164.94;4999704;28;20231;-96
2021/03/20 08:57:18;;;;;;;5.87;4.10;;;;;;;-0.48;70.86;100130.69;4933701;28;20282;-94
2021/03/20 09:00:14;;;;;;;8.97;4.10;;;;;;;-0.52;71.82;100161.72;4979740;28;20234;-94
2021/03/20 09:03:04;;;;;;;5.30;3.67;;;;;;;-0.66;72.33;100161.28;4965088;28;20236;-92
2021/03/20 09:05:56;;;;;;;5.27;3.67;;;;;;;-0.52;71.26;100174.88;4980672;28;20220;-95
2021/03/20 09:08:47;;;;;;;6.73;4.27;;;;;;;-0.31;70.99;100179.19;4979600;28;20243;-94
2021/03/20 09:11:44;;;;;;;5.27;3.90;;;;;;;-0.31;69.80;100158.97;4994429;28;20224;-94
2021/03/20 09:14:50;;;;;;;6.00;3.83;;;;;;;0.09;70.61;100177.28;4999551;28;20234;-95
2021/03/20 09:17:34;;;;;;;6.10;4.17;;;;;;;0.28;69.53;100192.25;4999098;28;20235;-92
2021/03/20 09:20:43;;;;;;;6.77;3.60;;;;;;;1.08;68.52;100197.88;4998965;28;20222;-93
2021/03/20 09:23:43;;;;;;;5.00;3.87;;;;;;;0.75;67.24;100183.41;4986308;28;20568;-92
2021/03/20 09:26:51;;;;;;;4.53;2.60;;;;;;;0.36;66.22;100195.03;4999210;28;20313;-89
2021/03/20 09:29:38;;;;;;;3.93;2.97;;;;;;;0.06;68.61;100166.19;4998536;28;20226;-89
2021/03/20 09:32:24;;;;;;;4.73;2.90;;;;;;;0.50;67.15;100189.31;4983167;28;20234;-92
2021/03/20 09:35:23;;;;;;;4.70;3.00;;;;;;;0.67;66.63;100190.38;5012954;28;20231;-95
2021/03/20 09:38:11;;;;;;;4.33;3.47;;;;;;;0.63;66.35;100170.53;4999547;28;20307;-93
2021/03/20 09:41:00;;;;;;;4.20;3.10;;;;;;;0.62;65.74;100158.31;5000077;28;20231;-85
2021/03/20 09:43:59;;;;;;;3.67;2.40;;;;;;;0.58;63.30;100186.78;5000225;28;20238;-90
2021/03/20 09:46:52;;;;;;;5.97;2.60;;;;;;;0.66;62.55;100167.59;5014746;28;20227;-94
2021/03/20 09:49:45;;;;;;;6.17;2.90;;;;;;;0.77;63.60;100191.19;4999566;28;20224;-92
2021/03/20 09:52:45;;;;;;;5.27;3.50;;;;;;;0.68;62.56;100187.59;4989374;28;20211;-84
2021/03/20 09:55:40;;;;;;;6.40;3.37;;;;;;;0.68;62.24;100194.69;5002548;28;20310;-95
2021/03/20 09:58:25;;;;;;;5.63;3.70;;;;;;;0.70;63.04;100201.47;4988913;28;20638;-96
2021/03/20 10:01:12;;;;;;;4.87;3.37;;;;;;;0.66;62.24;100186.06;5000881;28;20223;-93
2021/03/20 10:04:20;;;;;;;3.80;2.70;;;;;;;0.57;62.36;100197.47;4989098;28;20228;-92
2021/03/20 10:07:27;;;;;;;3.47;2.70;;;;;;;1.02;63.55;100195.00;5005444;28;20251;-96
2021/03/20 10:10:40;;;;;;;4.00;3.10;;;;;;;1.18;63.52;100197.81;5015756;28;20223;-87
2021/03/20 10:13:24;;;;;;;5.03;2.87;;;;;;;1.66;62.13;100173.81;5005855;28;20207;-80
2021/03/20 10:16:22;;;;;;;5.97;3.20;;;;;;;1.90;61.61;100189.91;4998487;28;20222;-80
2021/03/20 10:20:08;;;;;;;3.60;2.90;;;;;;;1.08;60.29;100189.94;5035355;23;20246;-80
2021/03/20 10:23:26;;;;;;;4.43;3.10;;;;;;;1.28;59.09;100186.25;5010634;28;20229;-79
2021/03/20 10:26:36;;;;;;;5.13;2.63;;;;;;;1.83;58.06;100172.97;5024838;28;20242;-88
2021/03/20 10:29:26;;;;;;;6.20;2.87;;;;;;;2.40;56.18;100186.69;5016847;28;20240;-81
2021/03/20 10:32:35;;;;;;;4.17;3.37;;;;;;;1.87;59.12;100166.41;5041515;28;20230;-80
2021/03/20 10:35:30;;;;;;;6.33;3.40;;;;;;;1.59;59.80;100144.50;5028779;23;20322;-80
2021/03/20 10:39:02;;;;;;;6.90;3.47;;;;;;;1.70;57.47;100189.19;5042986;23;20242;-80
2021/03/20 10:42:20;;;;;;;5.37;3.07;;;;;;;1.71;57.82;100167.09;5033337;28;20183;-79
2021/03/20 10:49:01;;;;;;;5.90;3.77;;;;;;;2.94;55.44;100182.94;5092308;23;20222;-79
2021/03/20 10:52:10;;;;;;;7.13;3.60;;;;;;;2.64;55.72;100200.09;4982465;28;20297;-79
2021/03/20 10:55:28;;;;;;;5.50;3.80;;;;;;;2.41;56.50;100183.91;5121934;23;20238;-80
2021/03/20 10:58:57;;;;;;;8.00;3.80;;;;;;;3.08;53.57;100177.00;5033107;28;20207;-78
2021/03/20 11:02:56;;;;;;;5.27;3.37;;;;;;;2.23;55.13;100185.75;5040156;23;20233;-79
2021/03/20 11:06:18;;;;;;;5.37;3.30;;;;;;;2.20;55.06;100133.97;5019617;22;20223;-78
2021/03/20 11:10:11;;;;;;;6.57;3.30;;;;;;;3.12;54.25;100177.56;4961905;29;20585;-79
2021/03/20 11:14:13;;;;;;;5.30;3.40;;;;;;;3.02;53.78;100170.56;4971000;29;20212;-79
2021/03/20 11:17:41;;;;;;;8.33;5.60;;;;;;;3.38;50.00;100168.56;4952006;23;20230;-79
2021/03/20 11:21:36;;;;;;;4.10;3.27;;;;;;;3.18;52.74;100164.50;4982870;28;20271;-79
2021/03/20 11:25:45;;;;;;;4.93;3.80;;;;;;;2.62;54.25;100171.13;5118816;23;20290;-79
2021/03/20 11:28:58;;;;;;;6.33;3.70;;;;;;;2.89;52.64;100172.78;5031898;28;20195;-79
2021/03/20 11:32:06;;;;;;;5.33;3.30;;;;;;;3.02;51.83;100143.25;5044052;23;20210;-79
2021/03/20 11:35:55;;;;;;;5.10;3.20;;;;;;;3.69;51.16;100152.88;5053760;22;20225;-80
2021/03/20 11:39:11;;;;;;;6.77;4.03;;;;;;;3.61;49.66;100165.28;5127829;22;20221;-79
2021/03/20 11:42:36;;;;;;;7.23;3.53;;;;;;;3.43;50.21;100160.94;5046716;28;20218;-79
2021/03/20 11:45:47;;;;;;;4.00;2.80;;;;;;;3.56;49.51;100157.84;5050820;22;20268;-79
2021/03/20 11:49:21;;;;;;;5.77;3.00;;;;;;;3.61;49.85;100144.94;5029857;28;20242;-79
2021/03/20 11:53:35;;;;;;;4.40;3.20;;;;;;;3.90;47.40;100137.38;5111919;23;20269;-79
2021/03/20 11:57:25;;;;;;;4.20;2.90;;;;;;;4.05;48.48;100161.41;5048511;28;20217;-79
2021/03/20 12:01:22;;;;;;;5.40;3.90;;;;;;;3.95;46.92;100156.25;5132991;23;20242;-80
2021/03/20 12:04:42;;;;;;;6.80;3.20;;;;;;;3.44;47.50;100151.19;4990124;28;20195;-80
2021/03/20 12:08:32;;;;;;;4.17;2.80;;;;;;;2.92;50.83;100151.31;5070706;22;20226;-79
2021/03/20 12:12:13;;;;;;;5.07;3.13;;;;;;;2.64;49.01;100152.47;5044236;23;20239;-79
2021/03/20 12:16:00;;;;;;;5.30;3.40;;;;;;;2.98;49.60;100144.56;5051931;23;20244;-79
2021/03/20 12:19:28;;;;;;;5.30;3.10;;;;;;;3.19;48.37;100144.13;5065087;22;20226;31
2021/03/20 12:23:04;;;;;;;5.07;3.53;;;;;;;3.06;48.95;100086.34;5008905;23;20310;-80
2021/03/20 12:27:21;;;;;;;4.80;3.47;;;;;;;3.18;48.64;100153.06;5001770;28;20589;-79
2021/03/20 12:30:28;;;;;;;4.37;3.23;;;;;;;2.26;48.41;100142.28;5016944;28;20223;-80
2021/03/20 12:33:54;;;;;;;11.33;3.67;;;;;;;2.47;47.95;100143.59;4471093;27;20282592;-80
2021/03/20 12:37:21;;;;;;;5.53;3.60;;;;;;;3.01;47.26;100125.72;5169421;27;20242;-79
2021/03/20 12:40:29;;;;;;;5.47;3.30;;;;;;;3.43;47.96;100125.69;5144523;22;20238;-80
2021/03/20 12:44:16;;;;;;;4.87;3.80;;;;;;;3.40;46.96;100149.84;5074292;22;20226;-80
2021/03/20 12:47:11;;;;;;;4.03;3.30;;;;;;;3.12;44.43;100141.31;5028789;28;20246;-80
2021/03/20 12:50:42;;;;;;;4.10;2.97;;;;;;;3.02;45.95;100136.16;5011185;28;20239;-79
2021/03/20 12:54:08;;;;;;;6.20;4.00;;;;;;;3.18;45.39;100142.47;5029923;28;20215;-80
2021/03/20 12:57:45;;;;;;;4.77;3.80;;;;;;;3.19;43.44;100121.13;5030937;28;20229;-80
2021/03/20 13:00:59;;;;;;;4.47;3.83;;;;;;;3.57;44.27;100114.47;5127231;23;20273;-80
2021/03/20 13:03:50;;;;;;;6.07;3.73;;;;;;;3.34;44.53;100113.41;5079563;22;20660;-79
2021/03/20 13:06:46;;;;;;;6.03;4.30;;;;;;;3.51;45.05;100129.19;5052382;28;20224;-82
2021/03/20 13:13:18;;;;;;;4.20;3.47;;;;;;;3.56;42.44;100107.50;5133061;23;20240;-79
2021/03/20 13:17:00;;;;;;;4.93;3.67;;;;;;;3.21;42.69;100113.03;5067943;28;20230;-80
2021/03/20 13:20:25;;;;;;;5.10;3.60;;;;;;;2.95;42.57;100118.38;5084191;23;20664;-79
2021/03/20 13:23:59;;;;;;;4.40;3.50;;;;;;;2.76;41.49;100126.56;5000919;23;20716;-80
2021/03/20 13:27:43;;;;;;;5.70;3.27;;;;;;;2.69;40.49;100121.09;5007207;23;20257;-80
2021/03/20 13:31:32;;;;;;;4.23;3.83;;;;;;;2.71;43.03;100120.94;5062477;22;20228;-80
2021/03/20 13:34:50;;;;;;;5.50;4.47;;;;;;;2.18;44.91;100137.78;5085066;22;20233;-80
2021/03/20 13:38:34;;;;;;;5.23;4.00;;;;;;;2.52;43.60;100127.28;5085193;22;20233;-80
2021/03/20 13:42:26;;;;;;;4.00;3.43;;;;;;;2.88;42.42;100112.09;5058057;28;20198;-81
2021/03/20 13:49:35;;;;;;;3.90;2.67;;;;;;;3.48;37.86;100115.44;4977119;28;20235;-81
2021/03/20 13:52:39;;;;;;;4.77;3.17;;;;;;;3.66;38.92;100116.13;5034316;23;20241;-81
2021/03/20 13:56:31;;;;;;;4.60;3.67;;;;;;;3.79;38.25;100126.25;5041924;23;20226;-80
2021/03/20 14:00:03;;;;;;;11.57;6.97;;;;;;;4.36;37.97;100098.72;5058635;28;20241;-80
2021/03/20 14:04:22;;;;;;;6.13;3.80;;;;;;;4.18;38.55;100116.66;5015158;28;20215;-80
2021/03/20 14:08:02;;;;;;;4.40;3.40;;;;;;;3.93;37.78;100121.13;5016436;28;20223;-81
2021/03/20 14:11:32;;;;;;;5.63;3.80;;;;;;;3.85;37.54;100126.44;5001495;28;20219;-80
2021/03/20 14:15:29;;;;;;;4.17;3.60;;;;;;;4.07;36.62;100119.63;4998231;23;20215;-81
2021/03/20 14:18:59;;;;;;;5.00;4.20;;;;;;;4.34;38.56;100126.41;5004344;23;20232;-81
2021/03/20 14:22:30;;;;;;;5.37;4.07;;;;;;;3.47;39.53;100104.00;5011943;28;20231;-80
2021/03/20 14:26:12;;;;;;;4.70;3.87;;;;;;;3.64;39.12;100119.94;5101341;23;20295;-80